Time;durP1;ratioP1;P1;durP2;ratioP2;P2;SDS_P1;SDS_P2;PMS_P1;PMS_P2;Temp;Humidity;BMP_temperature;BMP_pressure;BME280_temperature;BME280_humidity;BME280_pressure;Samples;Min_cycle;Max_cycle;Signal;HPM_P1;HPM_P2
2023/07/10 00:01:24;;;;;;;9.20;3.50;;;18.50;99.90;;;;;;5014188;28;21489;-60
2023/07/10 00:03:50;;;;;;;9.48;3.63;;;18.40;99.90;;;;;;5013311;28;20061;-59
2023/07/10 00:06:15;;;;;;;;;;;18.40;99.90;;;;;;5028851;28;20080;-60
2023/07/10 00:08:41;;;;;;;8.18;3.70;;;18.40;99.90;;;;;;5037976;28;19920;-61
2023/07/10 00:11:14;;;;;;;10.55;3.55;;;18.40;99.90;;;;;;5039370;28;20144;-59
2023/07/10 00:13:40;;;;;;;8.85;4.47;;;18.40;99.90;;;;;;5038186;28;20575;-59
2023/07/10 00:16:11;;;;;;;;;;;18.50;99.90;;;;;;5039691;28;20041;-57
2023/07/10 00:18:37;;;;;;;5.85;3.90;;;18.50;99.90;;;;;;5021589;28;20807;-57
2023/07/10 00:21:02;;;;;;;;;;;18.50;99.90;;;;;;5026940;28;20522;-60
2023/07/10 00:23:28;;;;;;;7.07;3.75;;;18.50;99.90;;;;;;5026435;28;19925;-58
2023/07/10 00:25:53;;;;;;;7.72;3.83;;;18.40;99.90;;;;;;5019168;28;20037;-59
2023/07/10 00:28:20;;;;;;;;;;;18.40;99.90;;;;;;5024284;28;20516;-57
2023/07/10 00:30:48;;;;;;;9.63;4.97;;;18.50;99.90;;;;;;5024718;28;20684;-61
2023/07/10 00:33:16;;;;;;;11.45;4.95;;;18.50;99.90;;;;;;5024514;28;20044;-54
2023/07/10 00:35:42;;;;;;;12.88;5.32;;;18.40;99.90;;;;;;5020125;28;20100;-59
2023/07/10 00:38:28;;;;;;;6.85;3.88;;;18.40;99.90;;;;;;5019403;28;20046;-59
2023/07/10 00:40:55;;;;;;;9.52;3.78;;;18.50;99.90;;;;;;5031048;28;20044;-59
2023/07/10 00:43:36;;;;;;;9.45;3.65;;;18.50;99.90;;;;;;5022587;28;20494;-61
2023/07/10 00:46:11;;;;;;;7.78;3.40;;;18.50;99.90;;;;;;5024983;28;20121;-59
2023/07/10 00:48:48;;;;;;;8.23;4.70;;;18.50;99.90;;;;;;5022274;28;20041;-60
2023/07/10 00:51:30;;;;;;;6.65;3.28;;;18.50;99.90;;;;;;5023724;28;20133;-59
2023/07/10 00:53:57;;;;;;;7.80;3.47;;;18.50;99.90;;;;;;5026372;28;20049;-58
2023/07/10 00:56:28;;;;;;;7.93;3.83;;;18.50;99.90;;;;;;5025644;28;20849;-58
2023/07/10 00:58:53;;;;;;;6.13;3.42;;;18.50;99.90;;;;;;5021382;28;20065;-61
2023/07/10 01:01:20;;;;;;;;;;;18.50;99.90;;;;;;5017591;28;20068;-62
2023/07/10 01:03:48;;;;;;;6.22;4.07;;;18.50;99.90;;;;;;5024051;28;20416;-62
2023/07/10 01:06:19;;;;;;;14.50;4.03;;;18.50;99.90;;;;;;5023520;28;20403;-62
2023/07/10 01:09:00;;;;;;;10.25;3.92;;;18.50;99.90;;;;;;5023529;28;20469;-58
2023/07/10 01:11:26;;;;;;;9.60;3.50;;;18.50;99.90;;;;;;5022588;28;20037;-60
2023/07/10 01:13:54;;;;;;;6.22;3.30;;;18.50;99.90;;;;;;5024392;28;20041;-61
2023/07/10 01:16:22;;;;;;;7.13;3.53;;;18.50;99.90;;;;;;5024040;28;20033;-61
2023/07/10 01:18:48;;;;;;;6.95;3.85;;;18.50;99.90;;;;;;5024244;28;20088;-57
2023/07/10 01:21:32;;;;;;;7.47;3.88;;;18.50;99.90;;;;;;5024390;28;20045;-60
2023/07/10 01:24:01;;;;;;;4.50;3.70;;;18.50;99.90;;;;;;5023300;28;20044;-59
2023/07/10 01:26:28;;;;;;;5.95;3.55;;;18.40;99.90;;;;;;5024975;28;20091;-54
2023/07/10 01:28:55;;;;;;;5.90;3.90;;;18.40;99.90;;;;;;5009043;28;20042;-61
2023/07/10 01:31:22;;;;;;;8.70;3.88;;;18.50;99.90;;;;;;5023513;28;20445;-57
2023/07/10 01:33:51;;;;;;;11.00;4.38;;;18.50;99.90;;;;;;5023153;28;20138;-58
2023/07/10 01:36:19;;;;;;;11.10;4.30;;;18.50;99.90;;;;;;5023638;28;20125;-60
2023/07/10 01:38:48;;;;;;;9.93;4.15;;;18.40;99.90;;;;;;5023589;28;20044;-61
2023/07/10 01:41:39;;;;;;;6.05;3.85;;;18.40;99.90;;;;;;5024482;28;20462;-61
2023/07/10 01:44:28;;;;;;;6.75;4.22;;;18.40;99.90;;;;;;5022715;28;20041;-55
2023/07/10 01:46:56;;;;;;;10.85;4.53;;;18.40;99.90;;;;;;5024361;28;21219;-62
2023/07/10 01:49:32;;;;;;;6.45;4.05;;;18.40;99.90;;;;;;5008440;28;20046;-60
2023/07/10 01:51:59;;;;;;;10.50;4.00;;;18.40;99.90;;;;;;5017319;28;20052;-59
2023/07/10 01:54:25;;;;;;;11.25;3.80;;;18.40;99.90;;;;;;5023043;28;21160;-61
2023/07/10 01:56:51;;;;;;;;;;;18.40;99.90;;;;;;5023788;28;20045;-60
2023/07/10 01:59:17;;;;;;;7.70;3.90;;;18.40;99.90;;;;;;5022936;28;19931;-61
2023/07/10 02:01:42;;;;;;;;;;;18.40;99.90;;;;;;5019013;28;20041;-62
2023/07/10 02:04:08;;;;;;;10.38;3.67;;;18.30;99.90;;;;;;5022813;28;19921;-57
2023/07/10 02:06:35;;;;;;;;;;;18.40;99.90;;;;;;5020934;28;20729;-61
2023/07/10 02:09:01;;;;;;;8.25;4.32;;;18.40;99.90;;;;;;5018269;28;19977;-58
2023/07/10 02:11:26;;;;;;;9.85;4.65;;;18.30;99.90;;;;;;5029429;28;20041;-60
2023/07/10 02:13:52;;;;;;;;;;;18.40;99.90;;;;;;5022757;28;20668;-59
2023/07/10 02:16:17;;;;;;;7.63;4.10;;;18.40;99.90;;;;;;5020187;28;19924;-57
2023/07/10 02:18:43;;;;;;;8.55;4.20;;;18.40;99.90;;;;;;5024276;28;20075;-59
2023/07/10 02:21:09;;;;;;;6.93;3.85;;;18.40;99.90;;;;;;5024419;28;20036;-64
2023/07/10 02:23:37;;;;;;;;;;;18.40;99.90;;;;;;5020754;28;20083;-59
2023/07/10 02:26:03;;;;;;;8.18;4.43;;;18.40;99.90;;;;;;5028112;28;20327;-62
2023/07/10 02:28:29;;;;;;;7.22;4.45;;;18.40;99.90;;;;;;5021365;28;20037;-60
2023/07/10 02:30:55;;;;;;;;;;;18.40;99.90;;;;;;5024613;28;20496;-61
2023/07/10 02:33:21;;;;;;;9.68;4.47;;;18.50;99.90;;;;;;5023576;28;19921;-58
2023/07/10 02:35:47;;;;;;;7.68;4.65;;;18.50;99.90;;;;;;5022726;28;20082;-54
2023/07/10 02:38:13;;;;;;;13.05;5.30;;;18.50;99.90;;;;;;5021032;28;20033;-60
2023/07/10 02:40:38;;;;;;;;;;;18.50;99.90;;;;;;5028302;28;20034;-59
2023/07/10 02:43:04;;;;;;;9.55;4.68;;;18.50;99.90;;;;;;5020848;28;19921;-56
2023/07/10 02:45:29;;;;;;;12.05;5.68;;;18.50;99.90;;;;;;5022511;28;20033;-60
2023/07/10 02:47:55;;;;;;;9.20;5.78;;;18.50;99.90;;;;;;5022838;28;20033;-60
2023/07/10 02:50:21;;;;;;;9.93;5.80;;;18.60;99.90;;;;;;5011604;28;20653;-59
2023/07/10 02:52:46;;;;;;;11.90;6.10;;;18.60;99.90;;;;;;5021873;28;20913;-58
2023/07/10 02:55:12;;;;;;;;;;;18.60;99.90;;;;;;5026185;28;20472;-59
2023/07/10 02:57:37;;;;;;;13.88;6.07;;;18.60;99.90;;;;;;5022498;28;19921;-60
2023/07/10 03:00:04;;;;;;;11.95;6.53;;;18.60;99.90;;;;;;5024055;28;20052;-58
2023/07/10 03:02:30;;;;;;;10.48;6.95;;;18.60;99.90;;;;;;5021830;28;20041;-62
2023/07/10 03:04:56;;;;;;;10.55;6.63;;;18.60;99.90;;;;;;5022148;28;20037;-58
2023/07/10 03:07:22;;;;;;;;;;;18.50;99.90;;;;;;5021876;28;20056;-61
2023/07/10 03:09:49;;;;;;;16.83;7.55;;;18.50;99.90;;;;;;5022112;28;19921;-59
2023/07/10 03:12:15;;;;;;;11.48;7.63;;;18.50;99.90;;;;;;5017660;28;20486;-60
2023/07/10 03:14:41;;;;;;;14.32;7.97;;;18.40;99.90;;;;;;5022148;28;20092;-60
2023/07/10 03:17:06;;;;;;;;;;;18.40;99.90;;;;;;5022928;28;20041;-60
2023/07/10 03:19:32;;;;;;;14.90;7.75;;;18.30;99.90;;;;;;5022700;28;19931;-59
2023/07/10 03:21:57;;;;;;;;;;;18.40;99.90;;;;;;5022271;28;20048;-58
2023/07/10 03:24:23;;;;;;;21.25;11.02;;;18.30;99.90;;;;;;5021493;28;19921;-60
2023/07/10 03:26:49;;;;;;;18.50;12.43;;;18.30;99.90;;;;;;5023125;28;20042;-63
2023/07/10 03:29:15;;;;;;;21.67;13.10;;;18.30;99.90;;;;;;5012764;28;20056;-61
2023/07/10 03:31:42;;;;;;;21.38;15.30;;;18.30;99.90;;;;;;5022722;28;20038;-61
2023/07/10 03:34:10;;;;;;;25.50;15.55;;;18.30;99.90;;;;;;5022072;28;20037;-59
2023/07/10 03:36:36;;;;;;;29.27;15.40;;;18.20;99.90;;;;;;5022358;28;20207;-56
2023/07/10 03:39:02;;;;;;;;;;;18.30;99.90;;;;;;5025050;28;20924;-59
2023/07/10 03:41:27;;;;;;;26.70;15.40;;;18.30;99.90;;;;;;5027423;28;20791;-60
2023/07/10 03:43:53;;;;;;;30.35;18.20;;;18.30;99.90;;;;;;5007929;28;20037;-60
2023/07/10 03:46:19;;;;;;;;;;;18.30;99.90;;;;;;5020800;28;20091;-56
2023/07/10 03:48:44;;;;;;;29.15;17.88;;;18.20;99.90;;;;;;5022462;28;19925;-54
2023/07/10 03:51:11;;;;;;;41.15;19.85;;;18.20;99.90;;;;;;5022622;28;20492;-55
2023/07/10 03:53:36;;;;;;;32.47;20.13;;;18.20;99.90;;;;;;5025181;28;20034;-59
2023/07/10 03:56:02;;;;;;;;;;;18.30;99.90;;;;;;5018959;28;20722;-60
2023/07/10 03:58:30;;;;;;;29.08;18.92;;;18.30;99.90;;;;;;5025228;28;19925;-58
2023/07/10 04:00:57;;;;;;;32.28;19.27;;;18.30;99.90;;;;;;5025313;28;20796;-55
2023/07/10 04:03:25;;;;;;;28.83;18.85;;;18.30;99.90;;;;;;5025335;28;20128;-61
2023/07/10 04:05:57;;;;;;;34.33;20.38;;;18.30;99.90;;;;;;5020270;28;20110;-60
2023/07/10 04:08:30;;;;;;;32.72;19.90;;;18.30;99.90;;;;;;5024289;28;20099;-59
2023/07/10 04:10:58;;;;;;;32.88;19.67;;;18.30;99.90;;;;;;5026411;28;20068;-56
2023/07/10 04:13:24;;;;;;;27.90;17.77;;;18.40;99.90;;;;;;5014244;28;20073;-56
2023/07/10 04:16:03;;;;;;;;;;;18.40;99.90;;;;;;5026341;28;20067;-61
2023/07/10 04:18:34;;;;;;;35.00;20.88;;;18.40;99.90;;;;;;5025468;28;19925;-61
2023/07/10 04:21:03;;;;;;;33.65;21.02;;;18.40;99.90;;;;;;5026362;28;20040;-60
2023/07/10 04:23:29;;;;;;;35.53;21.15;;;18.40;99.90;;;;;;5024893;28;20045;-57
2023/07/10 04:25:54;;;;;;;;;;;18.50;99.90;;;;;;5024541;28;20053;-59
2023/07/10 04:28:20;;;;;;;30.65;18.90;;;18.50;99.90;;;;;;5025187;28;20019;-57
2023/07/10 04:30:47;;;;;;;40.20;21.60;;;18.50;99.90;;;;;;5025164;28;20823;-60
2023/07/10 04:33:14;;;;;;;37.33;21.98;;;18.50;99.90;;;;;;5007514;28;20033;-59
2023/07/10 04:35:43;;;;;;;33.65;19.88;;;18.50;99.90;;;;;;5025698;28;20060;-57
2023/07/10 04:38:09;;;;;;;36.00;21.67;;;18.50;99.90;;;;;;5023606;28;20037;-61
2023/07/10 04:40:35;;;;;;;32.80;19.50;;;18.50;99.90;;;;;;5026292;28;20037;-62
2023/07/10 04:43:04;;;;;;;;;;;18.60;99.90;;;;;;5026249;28;20052;-62
2023/07/10 04:45:30;;;;;;;36.33;20.83;;;18.60;99.90;;;;;;5025741;28;19923;-62
2023/07/10 04:47:56;;;;;;;33.28;20.23;;;18.60;99.90;;;;;;5022755;28;20140;-62
2023/07/10 04:50:22;;;;;;;;;;;18.60;99.90;;;;;;5023764;28;20926;-59
2023/07/10 04:52:48;;;;;;;41.60;23.13;;;18.70;99.90;;;;;;5024946;28;20273;-61
2023/07/10 04:55:13;;;;;;;40.10;22.77;;;18.70;99.90;;;;;;5024395;28;20041;-60
2023/07/10 04:57:39;;;;;;;37.95;21.98;;;18.70;99.90;;;;;;5024508;28;20543;-59
2023/07/10 05:00:05;;;;;;;35.60;22.00;;;18.60;99.90;;;;;;5025939;28;20421;-57
2023/07/10 05:02:31;;;;;;;39.88;22.35;;;18.70;99.90;;;;;;5025010;28;20123;-60
2023/07/10 05:04:56;;;;;;;;;;;18.60;99.90;;;;;;5024766;28;20037;-61
2023/07/10 05:07:22;;;;;;;41.90;22.63;;;18.70;99.90;;;;;;5023159;28;20424;-61
2023/07/10 05:09:48;;;;;;;38.13;21.50;;;18.70;99.90;;;;;;5025552;28;20728;-60
2023/07/10 05:12:13;;;;;;;;;;;18.70;99.90;;;;;;5026849;28;20427;-56
2023/07/10 05:14:38;;;;;;;49.58;23.60;;;18.70;99.90;;;;;;5023228;28;19928;-60
2023/07/10 05:17:04;;;;;;;41.83;23.73;;;18.70;99.90;;;;;;5023093;28;20041;-61
2023/07/10 05:19:32;;;;;;;48.00;25.75;;;18.70;99.90;;;;;;5023774;28;20034;-60
2023/07/10 05:21:59;;;;;;;41.42;22.98;;;18.70;99.90;;;;;;5011556;28;21106;-56
2023/07/10 05:24:25;;;;;;;46.55;26.10;;;18.70;99.90;;;;;;5020893;28;20037;-61
2023/07/10 05:26:51;;;;;;;;;;;18.70;99.90;;;;;;5028276;28;20609;-56
2023/07/10 05:29:16;;;;;;;41.75;23.00;;;18.70;99.90;;;;;;5023925;28;20361;-60
2023/07/10 05:31:42;;;;;;;47.92;24.67;;;18.70;99.90;;;;;;5021754;28;20469;-59
2023/07/10 05:34:08;;;;;;;49.00;26.50;;;18.70;99.90;;;;;;5022967;28;20042;-55
2023/07/10 05:36:33;;;;;;;;;;;18.70;99.90;;;;;;5020139;28;20051;-61
2023/07/10 05:38:59;;;;;;;51.53;26.85;;;18.70;99.90;;;;;;5023447;28;20025;-58
2023/07/10 05:41:24;;;;;;;48.70;25.98;;;18.70;99.90;;;;;;5020939;28;20041;-59
2023/07/10 05:43:50;;;;;;;51.03;26.85;;;18.70;99.90;;;;;;5027530;28;20033;-54
2023/07/10 05:46:17;;;;;;;47.28;26.45;;;18.70;99.90;;;;;;5019187;28;20463;-61
2023/07/10 05:48:43;;;;;;;50.38;27.45;;;18.70;99.90;;;;;;5006643;28;20053;-59
2023/07/10 05:51:08;;;;;;;;;;;18.60;99.90;;;;;;5017573;28;20060;-62
2023/07/10 05:53:34;;;;;;;40.90;24.77;;;18.60;99.90;;;;;;5023244;28;19925;-61
2023/07/10 05:56:01;;;;;;;51.85;26.55;;;18.60;99.90;;;;;;5017109;28;20038;-60
2023/07/10 05:58:30;;;;;;;45.40;26.15;;;18.60;99.90;;;;;;5026021;28;20042;-60
2023/07/10 06:00:59;;;;;;;44.92;25.55;;;18.60;99.90;;;;;;5011199;28;20029;-56
2023/07/10 06:03:26;;;;;;;46.03;23.95;;;18.60;99.90;;;;;;5017822;28;20045;-54
2023/07/10 06:05:57;;;;;;;49.33;25.95;;;18.60;99.90;;;;;;5022334;28;20049;-58
2023/07/10 06:08:27;;;;;;;48.00;25.88;;;18.60;99.90;;;;;;5023306;28;20077;-52
2023/07/10 06:10:53;;;;;;;49.17;26.83;;;18.70;99.90;;;;;;5015086;28;20570;-57
2023/07/10 06:13:19;;;;;;;;;;;18.60;99.90;;;;;;5024228;28;20124;-54
2023/07/10 06:15:47;;;;;;;46.08;24.25;;;18.50;99.90;;;;;;5023247;28;20312;-57
2023/07/10 06:18:14;;;;;;;46.22;26.17;;;18.60;99.90;;;;;;5015340;28;20061;-61
2023/07/10 06:20:40;;;;;;;47.42;25.67;;;18.60;99.90;;;;;;5017646;28;20050;-57
2023/07/10 06:23:05;;;;;;;;;;;18.60;99.90;;;;;;5020993;28;20045;-55
2023/07/10 06:25:31;;;;;;;43.05;24.70;;;18.50;99.90;;;;;;5018703;28;19932;-59
2023/07/10 06:27:56;;;;;;;42.53;24.35;;;18.60;99.90;;;;;;5019548;28;20476;-58
2023/07/10 06:30:22;;;;;;;40.05;22.67;;;18.60;99.90;;;;;;5023395;28;20050;-52
2023/07/10 06:32:48;;;;;;;;;;;18.60;99.90;;;;;;5024492;28;20469;-59
2023/07/10 06:35:14;;;;;;;38.38;22.85;;;18.60;99.90;;;;;;5025797;28;20314;-57
2023/07/10 06:37:41;;;;;;;40.40;22.75;;;18.60;99.90;;;;;;5022506;28;20072;-60
2023/07/10 06:40:09;;;;;;;39.65;21.83;;;18.70;99.90;;;;;;5023614;28;20114;-54
2023/07/10 06:42:36;;;;;;;39.25;21.75;;;18.70;99.90;;;;;;5015913;28;20057;-57
2023/07/10 06:45:03;;;;;;;42.20;22.10;;;18.70;99.90;;;;;;5021660;28;20037;-61
2023/07/10 06:47:31;;;;;;;41.58;22.88;;;18.70;99.90;;;;;;5020936;28;20522;-59
2023/07/10 06:49:57;;;;;;;44.45;23.95;;;18.70;99.90;;;;;;5021242;28;20095;-58
2023/07/10 06:52:22;;;;;;;;;;;18.60;99.90;;;;;;5023073;28;20049;-59
2023/07/10 06:54:48;;;;;;;38.50;22.20;;;18.70;99.90;;;;;;5022126;28;19917;-61
2023/07/10 06:57:14;;;;;;;38.33;21.85;;;18.70;99.90;;;;;;4998183;28;20041;-58
2023/07/10 06:59:40;;;;;;;42.05;22.10;;;18.60;99.90;;;;;;5008310;28;20081;-61
2023/07/10 07:02:06;;;;;;;40.83;22.73;;;18.60;99.90;;;;;;5000267;28;20099;-58
2023/07/10 07:04:31;;;;;;;;;;;18.60;99.90;;;;;;5018146;28;20046;-58
2023/07/10 07:06:58;;;;;;;37.53;20.58;;;18.60;99.90;;;;;;5014965;28;20003;-56
2023/07/10 07:09:24;;;;;;;37.85;20.92;;;18.70;99.90;;;;;;5023669;28;20052;-61
2023/07/10 07:11:49;;;;;;;;;;;18.70;99.90;;;;;;5017335;28;20034;-59
2023/07/10 07:14:15;;;;;;;34.93;20.33;;;18.70;99.90;;;;;;5025576;28;19936;-54
2023/07/10 07:16:40;;;;;;;;;;;18.70;99.90;;;;;;5023462;28;20053;-57
2023/07/10 07:19:06;;;;;;;29.20;17.48;;;18.70;99.90;;;;;;5010979;28;20277;-59
2023/07/10 07:21:31;;;;;;;29.42;17.08;;;18.80;99.90;;;;;;5014627;28;20273;-58
2023/07/10 07:23:57;;;;;;;29.48;17.20;;;18.80;99.90;;;;;;5022221;28;20124;-61
2023/07/10 07:26:24;;;;;;;26.10;15.65;;;18.70;99.90;;;;;;5016231;28;20107;-60
2023/07/10 07:28:50;;;;;;;22.13;13.90;;;18.70;99.90;;;;;;5027936;28;20119;-59
2023/07/10 07:31:16;;;;;;;;;;;18.80;99.90;;;;;;5021085;28;20596;-59
2023/07/10 07:33:42;;;;;;;20.17;12.65;;;18.80;99.90;;;;;;5021224;28;19952;-55
2023/07/10 07:36:07;;;;;;;21.40;12.82;;;18.80;99.90;;;;;;5017139;28;20054;-57
2023/07/10 07:38:33;;;;;;;16.67;10.43;;;18.90;99.90;;;;;;5026305;28;20455;-57
2023/07/10 07:40:59;;;;;;;17.20;10.60;;;18.90;99.90;;;;;;5020844;28;20029;-57
2023/07/10 07:43:25;;;;;;;16.60;10.15;;;18.90;99.90;;;;;;5026078;28;20095;-58
2023/07/10 07:45:56;;;;;;;18.20;10.38;;;18.90;99.90;;;;;;5021897;28;20041;-54
2023/07/10 07:48:24;;;;;;;16.23;9.90;;;18.90;99.90;;;;;;5016943;28;20053;-61
2023/07/10 07:51:04;;;;;;;12.45;8.45;;;18.80;99.90;;;;;;5022235;28;20045;-59
2023/07/10 07:53:33;;;;;;;14.30;8.60;;;18.80;99.90;;;;;;5025791;28;20041;-60
2023/07/10 07:55:59;;;;;;;11.25;7.15;;;18.90;99.90;;;;;;5026865;28;20061;-55
2023/07/10 07:58:25;;;;;;;;;;;18.80;99.90;;;;;;5028876;28;20049;-56
2023/07/10 08:00:51;;;;;;;6.43;5.03;;;18.80;99.90;;;;;;5025650;28;19917;-56
2023/07/10 08:03:17;;;;;;;8.20;5.22;;;18.80;99.90;;;;;;5026231;28;20128;-56
2023/07/10 08:05:42;;;;;;;;;;;18.90;99.90;;;;;;5025961;28;20231;-59
2023/07/10 08:08:10;;;;;;;6.82;4.95;;;19.00;99.90;;;;;;5024927;28;20415;-57
2023/07/10 08:10:47;;;;;;;6.30;4.75;;;19.00;99.90;;;;;;5020865;28;20045;-57
2023/07/10 08:13:14;;;;;;;7.63;4.35;;;19.40;99.90;;;;;;5026132;28;20047;-58
2023/07/10 08:15:41;;;;;;;5.38;4.15;;;19.60;99.90;;;;;;4985582;28;20765;-57
2023/07/10 08:18:08;;;;;;;6.15;3.80;;;19.80;99.90;;;;;;5024661;28;20037;-58
2023/07/10 08:20:34;;;;;;;4.10;3.60;;;20.00;99.90;;;;;;5006246;28;20065;-58
2023/07/10 08:23:02;;;;;;;8.27;5.13;;;20.00;99.90;;;;;;5020961;28;20037;-60
2023/07/10 08:25:28;;;;;;;5.82;4.45;;;20.10;99.90;;;;;;5006556;28;20073;-59
2023/07/10 08:27:53;;;;;;;5.63;4.00;;;20.00;99.90;;;;;;5014404;28;20477;-57
2023/07/10 08:30:19;;;;;;;4.45;3.70;;;19.80;99.90;;;;;;5022895;28;20403;-60
2023/07/10 08:32:45;;;;;;;4.85;3.75;;;19.60;99.90;;;;;;5024963;28;20041;-56
2023/07/10 08:35:10;;;;;;;3.75;3.08;;;19.50;99.90;;;;;;5022516;28;20037;-60
2023/07/10 08:37:37;;;;;;;4.53;2.67;;;19.30;99.90;;;;;;5021172;28;20041;-53
2023/07/10 08:40:12;;;;;;;4.80;2.65;;;19.20;99.90;;;;;;5021677;28;20120;-60
2023/07/10 08:42:39;;;;;;;3.72;3.10;;;19.20;99.90;;;;;;5017839;28;20123;-60
2023/07/10 08:45:11;;;;;;;4.90;3.47;;;19.10;99.90;;;;;;5020913;28;20064;-58
2023/07/10 08:47:43;;;;;;;5.18;3.13;;;19.10;99.90;;;;;;5021841;28;20049;-57
2023/07/10 08:50:25;;;;;;;7.32;3.55;;;19.20;99.90;;;;;;5021000;28;20060;-61
2023/07/10 08:53:03;;;;;;;6.10;3.20;;;19.50;99.90;;;;;;5022798;28;20029;-60
2023/07/10 08:55:43;;;;;;;5.47;3.67;;;19.70;99.90;;;;;;5024830;28;20120;-61
2023/07/10 08:58:34;;;;;;;5.57;3.25;;;19.60;99.90;;;;;;5024021;28;20253;-62
2023/07/10 09:01:02;;;;;;;8.90;4.05;;;19.70;99.90;;;;;;5013271;28;20068;-59
2023/07/10 09:03:49;;;;;;;9.63;3.85;;;19.60;99.90;;;;;;5024710;28;20128;-61
2023/07/10 09:06:21;;;;;;;7.10;4.03;;;19.40;99.90;;;;;;5015727;28;20068;-58
2023/07/10 09:08:53;;;;;;;9.65;4.10;;;19.30;99.90;;;;;;5016813;28;20044;-55
2023/07/10 09:11:19;;;;;;;10.15;3.80;;;19.40;99.90;;;;;;5020494;28;20041;-60
2023/07/10 09:13:56;;;;;;;9.48;3.65;;;19.40;99.90;;;;;;5027567;28;20051;-61
2023/07/10 09:16:22;;;;;;;8.70;4.18;;;19.40;99.90;;;;;;5022475;28;20532;-62
2023/07/10 09:19:07;;;;;;;7.32;3.83;;;19.40;99.90;;;;;;5023174;28;20041;-60
2023/07/10 09:21:36;;;;;;;14.25;5.18;;;19.30;99.90;;;;;;5014857;28;20549;-61
2023/07/10 09:24:04;;;;;;;7.38;5.03;;;19.10;99.90;;;;;;5024303;28;20838;-60
2023/07/10 09:26:39;;;;;;;10.95;4.32;;;18.90;99.90;;;;;;5023855;28;20049;-60
2023/07/10 09:29:11;;;;;;;6.15;4.10;;;18.90;99.90;;;;;;5027869;28;20079;-59
2023/07/10 09:31:54;;;;;;;8.90;4.70;;;19.00;99.90;;;;;;5023775;28;20048;-59
2023/07/10 09:34:31;;;;;;;7.70;4.97;;;18.90;99.90;;;;;;5020408;28;20036;-59
2023/07/10 09:36:58;;;;;;;8.80;5.22;;;18.90;99.90;;;;;;5018008;28;20041;-58
2023/07/10 09:39:27;;;;;;;6.78;5.07;;;18.90;99.90;;;;;;5006111;28;20041;-58
2023/07/10 09:41:56;;;;;;;9.93;5.55;;;18.90;99.90;;;;;;5012756;28;20120;-57
2023/07/10 09:44:22;;;;;;;9.90;4.90;;;18.90;99.90;;;;;;5018089;28;20540;-60
2023/07/10 09:46:49;;;;;;;9.90;4.90;;;18.90;99.90;;;;;;5021995;28;20041;-62
2023/07/10 09:49:17;;;;;;;8.27;5.18;;;19.10;99.90;;;;;;5017522;28;20034;-58
2023/07/10 09:52:12;;;;;;;10.00;4.90;;;19.10;99.90;;;;;;5015464;28;20056;-64
2023/07/10 09:54:39;;;;;;;7.65;4.50;;;19.10;99.90;;;;;;5023213;28;20095;-62
2023/07/10 09:57:12;;;;;;;8.27;5.60;;;19.10;99.90;;;;;;5023403;28;20046;-59
2023/07/10 09:59:38;;;;;;;9.95;4.72;;;19.00;99.90;;;;;;5026346;28;20036;-59
2023/07/10 10:02:21;;;;;;;9.75;4.78;;;19.10;99.90;;;;;;5015340;28;20520;-61
2023/07/10 10:05:13;;;;;;;8.30;4.72;;;19.10;99.90;;;;;;5015125;28;20037;-61
2023/07/10 10:07:45;;;;;;;7.68;4.95;;;19.20;99.90;;;;;;5018714;28;20049;-61
2023/07/10 10:10:28;;;;;;;9.98;5.25;;;19.20;99.90;;;;;;5024984;28;20037;-61
2023/07/10 10:12:57;;;;;;;10.82;6.85;;;19.30;99.90;;;;;;5022768;28;20033;-62
2023/07/10 10:15:38;;;;;;;20.40;8.13;;;19.10;99.90;;;;;;5014455;28;20037;-58
2023/07/10 10:18:12;;;;;;;9.50;6.53;;;19.00;99.90;;;;;;5022597;28;20033;-60
2023/07/10 10:20:39;;;;;;;11.73;5.90;;;19.00;99.90;;;;;;5022053;28;20048;-60
2023/07/10 10:23:28;;;;;;;9.30;5.47;;;19.10;99.90;;;;;;5022262;28;20549;-61
2023/07/10 10:26:03;;;;;;;10.93;6.10;;;19.40;99.90;;;;;;5023563;28;20095;-60
2023/07/10 10:28:41;;;;;;;11.50;7.13;;;19.60;99.90;;;;;;5023035;28;20156;-65
2023/07/10 10:31:10;;;;;;;11.55;7.10;;;19.60;99.90;;;;;;5025511;28;20101;-63
2023/07/10 10:33:53;;;;;;;13.05;7.00;;;19.60;99.90;;;;;;5020851;28;20509;-60
2023/07/10 10:36:42;;;;;;;11.27;6.80;;;19.60;99.90;;;;;;5016707;28;20046;-60
2023/07/10 10:39:21;;;;;;;14.00;6.70;;;19.60;99.90;;;;;;5022151;28;20034;-58
2023/07/10 10:41:55;;;;;;;10.02;6.35;;;19.80;99.90;;;;;;5017164;28;20150;-62
2023/07/10 10:44:36;;;;;;;10.00;6.65;;;20.10;99.90;;;;;;5021855;28;20057;-60
2023/07/10 10:47:23;;;;;;;10.98;6.80;;;20.10;99.90;;;;;;5021128;28;20045;-61
2023/07/10 10:50:07;;;;;;;13.95;6.80;;;20.00;99.90;;;;;;5021976;28;20084;-63
2023/07/10 10:52:50;;;;;;;15.18;7.35;;;20.00;99.90;;;;;;5021649;28;20051;-59
2023/07/10 10:55:35;;;;;;;11.13;7.28;;;20.00;99.90;;;;;;5005258;28;20493;-57
2023/07/10 10:58:02;;;;;;;13.65;7.13;;;20.00;99.90;;;;;;5019767;28;20033;-57
2023/07/10 11:01:07;;;;;;;10.65;7.22;;;20.00;99.90;;;;;;5021333;28;20099;-61
2023/07/10 11:03:52;;;;;;;13.05;7.95;;;20.10;99.90;;;;;;5012538;28;20056;-64
2023/07/10 11:06:44;;;;;;;8.98;5.97;;;20.50;99.90;;;;;;5019719;28;20076;-64
2023/07/10 11:09:26;;;;;;;10.15;6.72;;;20.80;99.90;;;;;;5022052;28;20080;-60
2023/07/10 11:11:54;;;;;;;12.55;7.60;;;21.10;99.90;;;;;;4997242;28;20041;-60
2023/07/10 11:14:21;;;;;;;8.20;6.45;;;21.00;99.90;;;;;;5004135;28;20494;-61
2023/07/10 11:16:47;;;;;;;11.68;6.63;;;21.00;99.90;;;;;;5021900;28;20055;-60
2023/07/10 11:19:17;;;;;;;9.05;6.53;;;21.10;99.90;;;;;;5021775;28;20044;-62
2023/07/10 11:21:43;;;;;;;9.70;6.45;;;21.20;99.90;;;;;;5021648;28;20091;-54
2023/07/10 11:24:34;;;;;;;10.60;5.82;;;21.10;99.90;;;;;;5022365;28;20503;-61
2023/07/10 11:27:12;;;;;;;13.32;6.47;;;21.10;99.90;;;;;;5016938;28;20049;-62
2023/07/10 11:29:52;;;;;;;10.10;6.28;;;20.90;99.90;;;;;;5013419;28;20045;-63
2023/07/10 11:32:19;;;;;;;13.02;7.32;;;20.80;99.90;;;;;;5015707;28;20045;-61
2023/07/10 11:35:09;;;;;;;12.73;6.85;;;20.70;99.90;;;;;;5021104;28;20119;-63
2023/07/10 11:38:03;;;;;;;10.52;6.72;;;20.70;99.90;;;;;;5020718;28;20822;-61
2023/07/10 11:40:28;;;;;;;8.38;5.80;;;21.10;99.90;;;;;;5020963;28;20545;-63
2023/07/10 11:42:55;;;;;;;8.25;5.90;;;21.30;99.90;;;;;;5020147;28;20048;-58
2023/07/10 11:45:35;;;;;;;9.07;6.18;;;21.60;99.90;;;;;;5002743;28;20583;-61
2023/07/10 11:48:01;;;;;;;9.10;6.03;;;21.70;99.90;;;;;;5020225;28;20080;-63
2023/07/10 11:50:29;;;;;;;9.95;5.30;;;21.90;99.90;;;;;;5020301;28;20545;-63
2023/07/10 11:53:23;;;;;;;10.00;5.82;;;22.00;99.90;;;;;;5017008;28;20037;-62
2023/07/10 11:55:58;;;;;;;9.50;5.57;;;21.80;99.90;;;;;;5020794;28;20117;-63
2023/07/10 11:58:28;;;;;;;9.15;6.25;;;21.60;99.90;;;;;;5004578;28;20395;-62
2023/07/10 12:01:03;;;;;;;9.43;5.25;;;21.50;99.90;;;;;;5012116;28;20128;-62
2023/07/10 12:03:33;;;;;;;8.85;6.35;;;21.50;99.90;;;;;;5021203;28;20034;-61
2023/07/10 12:05:58;;;;;;;7.45;4.97;;;21.70;99.90;;;;;;5008207;28;20580;-60
2023/07/10 12:08:29;;;;;;;8.80;5.13;;;22.10;99.90;;;;;;5020169;28;20149;-58
2023/07/10 12:10:55;;;;;;;14.07;5.85;;;22.40;99.90;;;;;;5001529;28;20115;-60
2023/07/10 12:13:31;;;;;;;8.05;5.78;;;22.50;99.90;;;;;;5018869;28;20073;-60
2023/07/10 12:16:05;;;;;;;8.25;5.82;;;22.50;99.90;;;;;;5008065;28;20033;-62
2023/07/10 12:18:33;;;;;;;8.00;5.25;;;22.60;99.90;;;;;;5024148;28;20053;-60
2023/07/10 12:21:01;;;;;;;11.18;6.90;;;22.70;99.90;;;;;;5014577;28;20042;-58
2023/07/10 12:23:27;;;;;;;8.73;5.78;;;22.80;99.90;;;;;;5017013;28;20167;-60
2023/07/10 12:25:55;;;;;;;8.05;5.68;;;22.70;99.90;;;;;;5024079;28;20080;-61
2023/07/10 12:28:23;;;;;;;8.43;5.95;;;22.90;99.90;;;;;;5024206;28;20045;-62
2023/07/10 12:30:51;;;;;;;9.15;5.80;;;23.00;99.90;;;;;;5028224;28;20048;-59
2023/07/10 12:33:41;;;;;;;8.27;4.78;;;23.10;99.90;;;;;;5026893;28;20528;-60
2023/07/10 12:36:31;;;;;;;8.68;5.25;;;22.80;99.90;;;;;;5012089;28;20572;-59
2023/07/10 12:39:01;;;;;;;9.13;5.20;;;22.50;99.90;;;;;;5026044;28;20029;-53
2023/07/10 12:41:32;;;;;;;6.07;4.45;;;22.30;99.90;;;;;;5023995;28;20038;-55
2023/07/10 12:44:01;;;;;;;10.32;5.03;;;22.50;99.90;;;;;;5023071;28;20064;-61
2023/07/10 12:46:29;;;;;;;7.32;5.10;;;22.50;99.90;;;;;;5024073;28;20037;-58
2023/07/10 12:48:59;;;;;;;8.48;4.97;;;22.60;99.90;;;;;;5026490;28;20060;-60
2023/07/10 12:51:32;;;;;;;6.60;4.90;;;22.80;99.90;;;;;;5024619;28;20037;-62
2023/07/10 12:54:00;;;;;;;7.60;5.35;;;22.90;99.90;;;;;;5025843;28;20045;-59
2023/07/10 12:56:25;;;;;;;7.32;4.85;;;23.10;99.90;;;;;;5024718;28;20084;-60
2023/07/10 12:58:51;;;;;;;6.15;4.65;;;23.10;99.60;;;;;;5025912;28;20116;-59
2023/07/10 13:01:29;;;;;;;8.60;5.03;;;23.30;99.90;;;;;;5025349;28;20512;-61